sensor_id;sensor_type;location;lat;lon;timestamp;P1;durP1;ratioP1;P2;durP2;ratioP2
67508;SDS011;54354;44.724;11.284;2023-01-23T00:00:25;8.45;;;6.55;;
67508;SDS011;54354;44.724;11.284;2023-01-23T00:02:51;8.23;;;6.18;;
67508;SDS011;54354;44.724;11.284;2023-01-23T00:05:16;7.75;;;5.75;;
67508;SDS011;54354;44.724;11.284;2023-01-23T00:07:42;7.15;;;6.25;;
67508;SDS011;54354;44.724;11.284;2023-01-23T00:10:07;8.70;;;5.97;;
67508;SDS011;54354;44.724;11.284;2023-01-23T00:12:33;8.00;;;5.75;;
67508;SDS011;54354;44.724;11.284;2023-01-23T00:14:59;6.85;;;6.15;;
67508;SDS011;54354;44.724;11.284;2023-01-23T00:17:25;7.55;;;6.05;;
67508;SDS011;54354;44.724;11.284;2023-01-23T00:19:54;9.70;;;6.18;;
67508;SDS011;54354;44.724;11.284;2023-01-23T00:22:20;9.10;;;6.50;;
67508;SDS011;54354;44.724;11.284;2023-01-23T00:24:45;8.15;;;6.28;;
67508;SDS011;54354;44.724;11.284;2023-01-23T00:27:11;6.85;;;5.90;;
67508;SDS011;54354;44.724;11.284;2023-01-23T00:29:36;6.88;;;6.18;;
67508;SDS011;54354;44.724;11.284;2023-01-23T00:32:02;7.13;;;5.97;;
67508;SDS011;54354;44.724;11.284;2023-01-23T00:34:28;6.53;;;5.50;;
67508;SDS011;54354;44.724;11.284;2023-01-23T00:36:53;6.90;;;5.50;;
67508;SDS011;54354;44.724;11.284;2023-01-23T00:39:21;5.55;;;5.05;;
67508;SDS011;54354;44.724;11.284;2023-01-23T00:41:48;6.53;;;5.80;;
67508;SDS011;54354;44.724;11.284;2023-01-23T00:44:14;6.00;;;5.38;;
67508;SDS011;54354;44.724;11.284;2023-01-23T00:46:40;6.20;;;5.60;;
67508;SDS011;54354;44.724;11.284;2023-01-23T00:49:06;6.50;;;5.90;;
67508;SDS011;54354;44.724;11.284;2023-01-23T00:51:32;6.38;;;5.78;;
67508;SDS011;54354;44.724;11.284;2023-01-23T00:53:58;6.35;;;5.75;;
67508;SDS011;54354;44.724;11.284;2023-01-23T00:56:24;6.63;;;6.00;;
67508;SDS011;54354;44.724;11.284;2023-01-23T00:58:49;7.47;;;6.35;;
67508;SDS011;54354;44.724;11.284;2023-01-23T01:01:15;6.45;;;5.85;;
67508;SDS011;54354;44.724;11.284;2023-01-23T01:03:42;6.75;;;6.03;;
67508;SDS011;54354;44.724;11.284;2023-01-23T01:06:08;8.30;;;6.40;;
67508;SDS011;54354;44.724;11.284;2023-01-23T01:08:34;7.43;;;6.60;;
67508;SDS011;54354;44.724;11.284;2023-01-23T01:11:00;9.70;;;6.85;;
67508;SDS011;54354;44.724;11.284;2023-01-23T01:13:26;8.00;;;6.40;;
67508;SDS011;54354;44.724;11.284;2023-01-23T01:15:52;7.88;;;7.07;;
67508;SDS011;54354;44.724;11.284;2023-01-23T01:18:19;8.32;;;7.50;;
67508;SDS011;54354;44.724;11.284;2023-01-23T01:20:45;8.65;;;7.18;;
67508;SDS011;54354;44.724;11.284;2023-01-23T01:23:11;8.30;;;6.65;;
67508;SDS011;54354;44.724;11.284;2023-01-23T01:25:37;8.93;;;7.55;;
67508;SDS011;54354;44.724;11.284;2023-01-23T01:28:03;8.25;;;7.25;;
67508;SDS011;54354;44.724;11.284;2023-01-23T01:30:29;9.65;;;7.63;;
67508;SDS011;54354;44.724;11.284;2023-01-23T01:32:55;10.18;;;8.10;;
67508;SDS011;54354;44.724;11.284;2023-01-23T01:35:21;10.18;;;7.43;;
67508;SDS011;54354;44.724;11.284;2023-01-23T01:37:47;9.88;;;7.03;;
67508;SDS011;54354;44.724;11.284;2023-01-23T01:40:15;8.38;;;7.38;;
67508;SDS011;54354;44.724;11.284;2023-01-23T01:42:45;7.95;;;7.07;;
67508;SDS011;54354;44.724;11.284;2023-01-23T01:48:17;8.02;;;7.32;;
67508;SDS011;54354;44.724;11.284;2023-01-23T01:50:44;8.23;;;6.75;;
67508;SDS011;54354;44.724;11.284;2023-01-23T01:53:10;7.72;;;6.68;;
67508;SDS011;54354;44.724;11.284;2023-01-23T01:55:36;7.60;;;6.50;;
67508;SDS011;54354;44.724;11.284;2023-01-23T01:58:02;6.93;;;6.07;;
67508;SDS011;54354;44.724;11.284;2023-01-23T02:00:28;8.00;;;6.50;;
67508;SDS011;54354;44.724;11.284;2023-01-23T02:02:54;7.15;;;6.45;;
67508;SDS011;54354;44.724;11.284;2023-01-23T02:05:35;7.15;;;6.35;;
67508;SDS011;54354;44.724;11.284;2023-01-23T02:10:37;8.38;;;5.97;;
67508;SDS011;54354;44.724;11.284;2023-01-23T02:16:00;7.25;;;6.00;;
67508;SDS011;54354;44.724;11.284;2023-01-23T02:18:33;8.50;;;6.25;;
67508;SDS011;54354;44.724;11.284;2023-01-23T02:21:05;7.40;;;6.40;;
67508;SDS011;54354;44.724;11.284;2023-01-23T02:26:06;7.20;;;6.00;;
67508;SDS011;54354;44.724;11.284;2023-01-23T02:28:41;8.00;;;6.45;;
67508;SDS011;54354;44.724;11.284;2023-01-23T02:31:10;6.90;;;6.20;;
67508;SDS011;54354;44.724;11.284;2023-01-23T02:36:03;7.35;;;6.65;;
67508;SDS011;54354;44.724;11.284;2023-01-23T02:38:34;8.55;;;7.55;;
67508;SDS011;54354;44.724;11.284;2023-01-23T02:41:04;7.78;;;7.00;;
67508;SDS011;54354;44.724;11.284;2023-01-23T02:43:33;8.05;;;7.10;;
67508;SDS011;54354;44.724;11.284;2023-01-23T02:46:04;8.02;;;7.22;;
67508;SDS011;54354;44.724;11.284;2023-01-23T02:48:32;8.52;;;7.72;;
67508;SDS011;54354;44.724;11.284;2023-01-23T02:50:59;8.85;;;7.72;;
67508;SDS011;54354;44.724;11.284;2023-01-23T02:53:25;9.13;;;7.28;;
67508;SDS011;54354;44.724;11.284;2023-01-23T02:55:51;8.70;;;7.80;;
67508;SDS011;54354;44.724;11.284;2023-01-23T02:58:19;8.20;;;7.40;;
67508;SDS011;54354;44.724;11.284;2023-01-23T03:01:05;8.52;;;7.68;;
67508;SDS011;54354;44.724;11.284;2023-01-23T03:03:30;8.45;;;7.53;;
67508;SDS011;54354;44.724;11.284;2023-01-23T03:05:56;10.52;;;8.30;;
67508;SDS011;54354;44.724;11.284;2023-01-23T03:08:23;11.20;;;8.43;;
67508;SDS011;54354;44.724;11.284;2023-01-23T03:10:59;11.70;;;8.38;;
67508;SDS011;54354;44.724;11.284;2023-01-23T03:13:25;9.73;;;8.65;;
67508;SDS011;54354;44.724;11.284;2023-01-23T03:15:51;11.90;;;8.80;;
67508;SDS011;54354;44.724;11.284;2023-01-23T03:20:47;11.70;;;9.68;;
67508;SDS011;54354;44.724;11.284;2023-01-23T03:23:12;11.73;;;9.52;;
67508;SDS011;54354;44.724;11.284;2023-01-23T03:25:41;10.10;;;9.05;;
67508;SDS011;54354;44.724;11.284;2023-01-23T03:28:08;11.38;;;9.20;;
67508;SDS011;54354;44.724;11.284;2023-01-23T03:30:57;11.68;;;9.80;;
67508;SDS011;54354;44.724;11.284;2023-01-23T03:33:23;14.07;;;10.20;;
67508;SDS011;54354;44.724;11.284;2023-01-23T03:35:50;11.55;;;10.25;;
67508;SDS011;54354;44.724;11.284;2023-01-23T03:38:15;11.93;;;10.10;;
67508;SDS011;54354;44.724;11.284;2023-01-23T03:40:43;12.38;;;10.07;;
67508;SDS011;54354;44.724;11.284;2023-01-23T03:43:31;14.55;;;11.18;;
67508;SDS011;54354;44.724;11.284;2023-01-23T03:45:58;13.95;;;12.05;;
67508;SDS011;54354;44.724;11.284;2023-01-23T03:48:24;13.35;;;11.15;;
67508;SDS011;54354;44.724;11.284;2023-01-23T03:50:50;13.57;;;11.77;;
67508;SDS011;54354;44.724;11.284;2023-01-23T03:53:18;13.13;;;10.88;;
67508;SDS011;54354;44.724;11.284;2023-01-23T03:55:45;11.57;;;10.38;;
67508;SDS011;54354;44.724;11.284;2023-01-23T03:58:11;11.32;;;9.50;;
67508;SDS011;54354;44.724;11.284;2023-01-23T04:00:39;10.95;;;9.77;;
67508;SDS011;54354;44.724;11.284;2023-01-23T04:03:06;10.70;;;9.57;;
67508;SDS011;54354;44.724;11.284;2023-01-23T04:05:32;10.77;;;9.30;;
67508;SDS011;54354;44.724;11.284;2023-01-23T04:07:59;11.00;;;9.90;;
67508;SDS011;54354;44.724;11.284;2023-01-23T04:10:25;10.55;;;9.50;;
67508;SDS011;54354;44.724;11.284;2023-01-23T04:12:54;9.98;;;9.00;;
67508;SDS011;54354;44.724;11.284;2023-01-23T04:15:21;11.48;;;10.05;;
67508;SDS011;54354;44.724;11.284;2023-01-23T04:17:48;10.30;;;9.18;;
67508;SDS011;54354;44.724;11.284;2023-01-23T04:20:14;13.27;;;10.00;;
67508;SDS011;54354;44.724;11.284;2023-01-23T04:22:42;10.88;;;9.57;;
67508;SDS011;54354;44.724;11.284;2023-01-23T04:25:08;10.82;;;9.73;;
67508;SDS011;54354;44.724;11.284;2023-01-23T04:27:34;10.45;;;9.45;;
67508;SDS011;54354;44.724;11.284;2023-01-23T04:30:00;12.32;;;10.05;;
67508;SDS011;54354;44.724;11.284;2023-01-23T04:32:26;13.35;;;10.60;;
67508;SDS011;54354;44.724;11.284;2023-01-23T04:34:51;12.77;;;11.02;;
67508;SDS011;54354;44.724;11.284;2023-01-23T04:37:17;14.55;;;11.18;;
67508;SDS011;54354;44.724;11.284;2023-01-23T04:39:44;15.75;;;11.63;;
67508;SDS011;54354;44.724;11.284;2023-01-23T04:42:09;13.25;;;11.85;;
67508;SDS011;54354;44.724;11.284;2023-01-23T04:45:04;13.45;;;11.45;;
67508;SDS011;54354;44.724;11.284;2023-01-23T04:48:05;11.68;;;10.48;;
67508;SDS011;54354;44.724;11.284;2023-01-23T04:50:34;12.32;;;11.05;;
67508;SDS011;54354;44.724;11.284;2023-01-23T04:52:59;12.00;;;10.77;;
67508;SDS011;54354;44.724;11.284;2023-01-23T04:55:25;19.15;;;12.38;;
67508;SDS011;54354;44.724;11.284;2023-01-23T04:57:53;12.98;;;11.18;;
67508;SDS011;54354;44.724;11.284;2023-01-23T05:00:24;11.77;;;10.57;;
67508;SDS011;54354;44.724;11.284;2023-01-23T05:02:53;12.80;;;11.50;;
67508;SDS011;54354;44.724;11.284;2023-01-23T05:05:20;13.35;;;11.90;;
67508;SDS011;54354;44.724;11.284;2023-01-23T05:07:48;13.70;;;11.90;;
67508;SDS011;54354;44.724;11.284;2023-01-23T05:10:16;13.57;;;11.82;;
67508;SDS011;54354;44.724;11.284;2023-01-23T05:12:42;13.55;;;11.55;;
67508;SDS011;54354;44.724;11.284;2023-01-23T05:15:08;13.80;;;12.32;;
67508;SDS011;54354;44.724;11.284;2023-01-23T05:17:36;13.25;;;11.38;;
67508;SDS011;54354;44.724;11.284;2023-01-23T05:20:02;13.10;;;11.70;;
67508;SDS011;54354;44.724;11.284;2023-01-23T05:22:28;13.68;;;11.40;;
67508;SDS011;54354;44.724;11.284;2023-01-23T05:24:55;11.98;;;10.73;;
67508;SDS011;54354;44.724;11.284;2023-01-23T05:27:23;13.48;;;11.35;;
67508;SDS011;54354;44.724;11.284;2023-01-23T05:29:50;11.57;;;10.48;;
67508;SDS011;54354;44.724;11.284;2023-01-23T05:32:20;12.15;;;10.50;;
67508;SDS011;54354;44.724;11.284;2023-01-23T05:35:01;11.77;;;10.57;;
67508;SDS011;54354;44.724;11.284;2023-01-23T05:37:29;12.15;;;10.43;;
67508;SDS011;54354;44.724;11.284;2023-01-23T05:40:01;12.38;;;10.45;;
67508;SDS011;54354;44.724;11.284;2023-01-23T05:42:46;11.48;;;10.32;;
67508;SDS011;54354;44.724;11.284;2023-01-23T05:45:31;13.90;;;11.60;;
67508;SDS011;54354;44.724;11.284;2023-01-23T05:47:59;11.57;;;10.40;;
67508;SDS011;54354;44.724;11.284;2023-01-23T05:50:24;12.00;;;10.75;;
67508;SDS011;54354;44.724;11.284;2023-01-23T05:52:51;11.98;;;10.65;;
67508;SDS011;54354;44.724;11.284;2023-01-23T05:55:17;12.75;;;10.88;;
67508;SDS011;54354;44.724;11.284;2023-01-23T05:57:45;13.07;;;11.70;;
67508;SDS011;54354;44.724;11.284;2023-01-23T06:00:13;14.40;;;11.65;;
67508;SDS011;54354;44.724;11.284;2023-01-23T06:03:11;13.32;;;11.60;;
67508;SDS011;54354;44.724;11.284;2023-01-23T06:05:49;13.27;;;11.88;;
67508;SDS011;54354;44.724;11.284;2023-01-23T06:08:17;13.90;;;12.52;;
67508;SDS011;54354;44.724;11.284;2023-01-23T06:10:42;13.88;;;12.35;;
67508;SDS011;54354;44.724;11.284;2023-01-23T06:13:09;13.05;;;11.75;;
67508;SDS011;54354;44.724;11.284;2023-01-23T06:15:35;13.25;;;11.88;;
67508;SDS011;54354;44.724;11.284;2023-01-23T06:18:06;13.27;;;11.75;;
67508;SDS011;54354;44.724;11.284;2023-01-23T06:20:32;12.75;;;11.55;;
67508;SDS011;54354;44.724;11.284;2023-01-23T06:22:59;14.77;;;12.15;;
67508;SDS011;54354;44.724;11.284;2023-01-23T06:25:26;13.48;;;11.82;;
67508;SDS011;54354;44.724;11.284;2023-01-23T06:27:53;14.18;;;12.38;;
67508;SDS011;54354;44.724;11.284;2023-01-23T06:30:19;13.23;;;11.85;;
67508;SDS011;54354;44.724;11.284;2023-01-23T06:32:45;15.48;;;11.75;;
67508;SDS011;54354;44.724;11.284;2023-01-23T06:35:14;13.60;;;12.20;;
67508;SDS011;54354;44.724;11.284;2023-01-23T06:37:42;13.50;;;12.10;;
67508;SDS011;54354;44.724;11.284;2023-01-23T06:40:10;14.20;;;12.73;;
67508;SDS011;54354;44.724;11.284;2023-01-23T06:42:39;13.65;;;12.18;;
67508;SDS011;54354;44.724;11.284;2023-01-23T06:45:06;15.15;;;12.50;;
67508;SDS011;54354;44.724;11.284;2023-01-23T06:47:33;13.68;;;12.15;;
67508;SDS011;54354;44.724;11.284;2023-01-23T06:49:59;13.55;;;11.52;;
67508;SDS011;54354;44.724;11.284;2023-01-23T06:52:28;13.98;;;12.05;;
67508;SDS011;54354;44.724;11.284;2023-01-23T06:54:54;13.35;;;11.95;;
67508;SDS011;54354;44.724;11.284;2023-01-23T06:57:20;14.40;;;12.55;;
67508;SDS011;54354;44.724;11.284;2023-01-23T06:59:47;15.45;;;13.13;;
67508;SDS011;54354;44.724;11.284;2023-01-23T07:02:16;14.32;;;12.40;;
67508;SDS011;54354;44.724;11.284;2023-01-23T07:04:44;14.38;;;12.85;;
67508;SDS011;54354;44.724;11.284;2023-01-23T07:07:10;14.05;;;12.65;;
67508;SDS011;54354;44.724;11.284;2023-01-23T07:09:37;13.90;;;12.38;;
67508;SDS011;54354;44.724;11.284;2023-01-23T07:12:08;14.13;;;12.70;;
67508;SDS011;54354;44.724;11.284;2023-01-23T07:14:34;14.70;;;13.20;;
67508;SDS011;54354;44.724;11.284;2023-01-23T07:17:00;14.55;;;12.77;;
67508;SDS011;54354;44.724;11.284;2023-01-23T07:19:26;15.52;;;13.05;;
67508;SDS011;54354;44.724;11.284;2023-01-23T07:21:53;15.93;;;14.32;;
67508;SDS011;54354;44.724;11.284;2023-01-23T07:24:19;15.10;;;13.43;;
67508;SDS011;54354;44.724;11.284;2023-01-23T07:26:44;14.95;;;13.35;;
67508;SDS011;54354;44.724;11.284;2023-01-23T07:29:10;14.68;;;13.18;;
67508;SDS011;54354;44.724;11.284;2023-01-23T07:31:35;15.02;;;13.40;;
67508;SDS011;54354;44.724;11.284;2023-01-23T07:34:01;13.85;;;12.45;;
67508;SDS011;54354;44.724;11.284;2023-01-23T07:36:27;14.55;;;13.00;;
67508;SDS011;54354;44.724;11.284;2023-01-23T07:38:54;15.98;;;14.00;;
67508;SDS011;54354;44.724;11.284;2023-01-23T07:41:20;17.60;;;14.45;;
67508;SDS011;54354;44.724;11.284;2023-01-23T07:43:46;17.90;;;14.25;;
67508;SDS011;54354;44.724;11.284;2023-01-23T07:46:11;14.60;;;13.10;;
67508;SDS011;54354;44.724;11.284;2023-01-23T07:48:37;16.00;;;13.02;;
67508;SDS011;54354;44.724;11.284;2023-01-23T07:51:03;15.45;;;13.48;;
67508;SDS011;54354;44.724;11.284;2023-01-23T07:53:29;15.75;;;13.90;;
67508;SDS011;54354;44.724;11.284;2023-01-23T07:55:55;14.95;;;13.32;;
67508;SDS011;54354;44.724;11.284;2023-01-23T07:58:20;15.95;;;13.80;;
67508;SDS011;54354;44.724;11.284;2023-01-23T08:00:46;15.35;;;13.48;;
67508;SDS011;54354;44.724;11.284;2023-01-23T08:03:11;15.50;;;13.77;;
67508;SDS011;54354;44.724;11.284;2023-01-23T08:05:37;16.17;;;13.20;;
67508;SDS011;54354;44.724;11.284;2023-01-23T08:08:02;16.83;;;14.18;;
67508;SDS011;54354;44.724;11.284;2023-01-23T08:10:28;15.27;;;13.70;;
67508;SDS011;54354;44.724;11.284;2023-01-23T08:12:53;18.27;;;14.23;;
67508;SDS011;54354;44.724;11.284;2023-01-23T08:15:19;15.90;;;13.35;;
67508;SDS011;54354;44.724;11.284;2023-01-23T08:17:45;13.73;;;12.18;;
67508;SDS011;54354;44.724;11.284;2023-01-23T08:20:10;16.27;;;12.82;;
67508;SDS011;54354;44.724;11.284;2023-01-23T08:33:35;17.77;;;11.80;;
67508;SDS011;54354;44.724;11.284;2023-01-23T08:36:03;12.98;;;11.63;;
67508;SDS011;54354;44.724;11.284;2023-01-23T08:38:29;17.35;;;12.25;;
67508;SDS011;54354;44.724;11.284;2023-01-23T08:40:57;13.63;;;12.23;;
67508;SDS011;54354;44.724;11.284;2023-01-23T08:43:24;13.95;;;12.13;;
67508;SDS011;54354;44.724;11.284;2023-01-23T08:45:51;14.88;;;13.38;;
67508;SDS011;54354;44.724;11.284;2023-01-23T08:48:17;13.10;;;11.52;;
67508;SDS011;54354;44.724;11.284;2023-01-23T08:50:44;9.68;;;8.68;;
67508;SDS011;54354;44.724;11.284;2023-01-23T08:53:10;10.82;;;8.00;;
67508;SDS011;54354;44.724;11.284;2023-01-23T08:55:35;5.43;;;4.93;;
67508;SDS011;54354;44.724;11.284;2023-01-23T08:58:03;5.07;;;4.43;;
67508;SDS011;54354;44.724;11.284;2023-01-23T09:00:29;3.33;;;2.90;;
67508;SDS011;54354;44.724;11.284;2023-01-23T09:02:58;5.55;;;2.33;;
67508;SDS011;54354;44.724;11.284;2023-01-23T09:05:24;4.00;;;1.42;;
67508;SDS011;54354;44.724;11.284;2023-01-23T09:07:50;3.28;;;1.23;;
67508;SDS011;54354;44.724;11.284;2023-01-23T09:10:16;5.15;;;1.13;;
67508;SDS011;54354;44.724;11.284;2023-01-23T09:12:41;2.67;;;1.58;;
67508;SDS011;54354;44.724;11.284;2023-01-23T09:15:07;8.23;;;2.00;;
67508;SDS011;54354;44.724;11.284;2023-01-23T09:17:33;5.93;;;1.60;;
67508;SDS011;54354;44.724;11.284;2023-01-23T09:19:59;2.85;;;1.65;;
67508;SDS011;54354;44.724;11.284;2023-01-23T09:22:25;3.67;;;1.63;;
67508;SDS011;54354;44.724;11.284;2023-01-23T09:24:51;6.50;;;1.85;;
67508;SDS011;54354;44.724;11.284;2023-01-23T09:27:17;2.47;;;1.00;;
67508;SDS011;54354;44.724;11.284;2023-01-23T09:29:43;2.67;;;1.00;;
67508;SDS011;54354;44.724;11.284;2023-01-23T09:32:08;3.83;;;1.40;;
67508;SDS011;54354;44.724;11.284;2023-01-23T09:34:34;3.97;;;0.93;;
67508;SDS011;54354;44.724;11.284;2023-01-23T09:36:59;2.83;;;1.20;;
67508;SDS011;54354;44.724;11.284;2023-01-23T09:47:44;2.30;;;0.90;;
67508;SDS011;54354;44.724;11.284;2023-01-23T09:50:25;2.72;;;1.00;;
67508;SDS011;54354;44.724;11.284;2023-01-23T09:52:57;3.78;;;1.00;;
67508;SDS011;54354;44.724;11.284;2023-01-23T09:58:05;2.22;;;1.30;;
67508;SDS011;54354;44.724;11.284;2023-01-23T10:00:40;4.25;;;1.20;;
67508;SDS011;54354;44.724;11.284;2023-01-23T10:03:10;1.85;;;0.95;;
67508;SDS011;54354;44.724;11.284;2023-01-23T10:10:58;3.22;;;1.20;;
67508;SDS011;54354;44.724;11.284;2023-01-23T10:16:46;4.65;;;1.10;;
67508;SDS011;54354;44.724;11.284;2023-01-23T10:19:35;3.58;;;1.08;;
67508;SDS011;54354;44.724;11.284;2023-01-23T10:22:06;4.05;;;1.00;;
67508;SDS011;54354;44.724;11.284;2023-01-23T10:24:50;3.70;;;1.10;;
67508;SDS011;54354;44.724;11.284;2023-01-23T10:27:19;5.13;;;1.30;;
67508;SDS011;54354;44.724;11.284;2023-01-23T10:32:50;4.75;;;1.17;;
67508;SDS011;54354;44.724;11.284;2023-01-23T10:35:28;5.68;;;1.30;;
67508;SDS011;54354;44.724;11.284;2023-01-23T10:38:08;3.20;;;0.90;;
67508;SDS011;54354;44.724;11.284;2023-01-23T10:40:39;2.15;;;0.90;;
67508;SDS011;54354;44.724;11.284;2023-01-23T10:43:24;6.82;;;1.27;;
67508;SDS011;54354;44.724;11.284;2023-01-23T10:45:50;5.47;;;1.20;;
67508;SDS011;54354;44.724;11.284;2023-01-23T10:48:37;4.47;;;0.95;;
67508;SDS011;54354;44.724;11.284;2023-01-23T10:54:01;4.28;;;1.20;;
67508;SDS011;54354;44.724;11.284;2023-01-23T10:56:27;7.93;;;1.63;;
67508;SDS011;54354;44.724;11.284;2023-01-23T10:58:54;7.40;;;1.50;;
67508;SDS011;54354;44.724;11.284;2023-01-23T11:01:30;6.72;;;1.27;;
67508;SDS011;54354;44.724;11.284;2023-01-23T11:04:07;4.65;;;1.17;;
67508;SDS011;54354;44.724;11.284;2023-01-23T11:06:36;4.40;;;0.80;;
67508;SDS011;54354;44.724;11.284;2023-01-23T11:09:01;4.80;;;1.15;;
67508;SDS011;54354;44.724;11.284;2023-01-23T11:11:30;6.28;;;1.60;;
67508;SDS011;54354;44.724;11.284;2023-01-23T11:14:08;6.90;;;1.65;;
67508;SDS011;54354;44.724;11.284;2023-01-23T11:16:36;5.80;;;1.40;;
67508;SDS011;54354;44.724;11.284;2023-01-23T11:21:35;4.32;;;1.50;;
67508;SDS011;54354;44.724;11.284;2023-01-23T11:24:11;8.10;;;1.20;;
67508;SDS011;54354;44.724;11.284;2023-01-23T11:27:02;4.82;;;1.10;;
67508;SDS011;54354;44.724;11.284;2023-01-23T11:29:30;2.92;;;0.93;;
67508;SDS011;54354;44.724;11.284;2023-01-23T11:32:12;4.13;;;1.30;;
67508;SDS011;54354;44.724;11.284;2023-01-23T11:34:44;6.65;;;0.93;;
67508;SDS011;54354;44.724;11.284;2023-01-23T11:37:14;4.28;;;0.90;;
67508;SDS011;54354;44.724;11.284;2023-01-23T11:42:25;12.18;;;3.42;;
67508;SDS011;54354;44.724;11.284;2023-01-23T11:44:52;3.42;;;0.98;;
67508;SDS011;54354;44.724;11.284;2023-01-23T11:50:06;8.93;;;0.90;;
67508;SDS011;54354;44.724;11.284;2023-01-23T11:58:16;19.10;;;1.30;;
67508;SDS011;54354;44.724;11.284;2023-01-23T12:00:50;8.18;;;1.30;;
67508;SDS011;54354;44.724;11.284;2023-01-23T12:03:24;7.40;;;1.17;;
67508;SDS011;54354;44.724;11.284;2023-01-23T12:08:46;6.70;;;1.20;;
67508;SDS011;54354;44.724;11.284;2023-01-23T12:11:22;8.60;;;1.20;;
67508;SDS011;54354;44.724;11.284;2023-01-23T12:14:10;13.35;;;1.30;;
67508;SDS011;54354;44.724;11.284;2023-01-23T12:21:56;9.40;;;1.50;;
67508;SDS011;54354;44.724;11.284;2023-01-23T12:30:10;13.32;;;1.38;;
67508;SDS011;54354;44.724;11.284;2023-01-23T12:46:27;14.38;;;1.70;;
67508;SDS011;54354;44.724;11.284;2023-01-23T12:51:49;17.23;;;1.70;;
67508;SDS011;54354;44.724;11.284;2023-01-23T12:54:28;12.98;;;2.00;;
67508;SDS011;54354;44.724;11.284;2023-01-23T12:57:00;14.90;;;1.90;;
67508;SDS011;54354;44.724;11.284;2023-01-23T13:02:39;12.30;;;1.80;;
67508;SDS011;54354;44.724;11.284;2023-01-23T13:05:20;11.93;;;1.92;;
67508;SDS011;54354;44.724;11.284;2023-01-23T13:07:57;11.55;;;1.40;;
67508;SDS011;54354;44.724;11.284;2023-01-23T13:13:46;11.45;;;1.70;;
67508;SDS011;54354;44.724;11.284;2023-01-23T13:16:12;13.93;;;1.95;;
67508;SDS011;54354;44.724;11.284;2023-01-23T13:18:41;10.85;;;1.73;;
67508;SDS011;54354;44.724;11.284;2023-01-23T13:21:38;12.32;;;1.75;;
67508;SDS011;54354;44.724;11.284;2023-01-23T13:30:03;14.43;;;1.80;;
67508;SDS011;54354;44.724;11.284;2023-01-23T13:36:05;15.68;;;2.10;;
67508;SDS011;54354;44.724;11.284;2023-01-23T13:39:02;14.63;;;2.08;;
67508;SDS011;54354;44.724;11.284;2023-01-23T13:44:20;20.15;;;2.38;;
67508;SDS011;54354;44.724;11.284;2023-01-23T13:52:36;19.27;;;2.22;;
67508;SDS011;54354;44.724;11.284;2023-01-23T13:55:23;20.25;;;2.45;;
67508;SDS011;54354;44.724;11.284;2023-01-23T13:58:14;16.33;;;2.10;;
67508;SDS011;54354;44.724;11.284;2023-01-23T14:00:44;16.35;;;2.10;;
67508;SDS011;54354;44.724;11.284;2023-01-23T14:03:36;18.10;;;2.20;;
67508;SDS011;54354;44.724;11.284;2023-01-23T14:06:29;14.15;;;1.73;;
67508;SDS011;54354;44.724;11.284;2023-01-23T14:08:59;17.40;;;2.22;;
67508;SDS011;54354;44.724;11.284;2023-01-23T14:11:29;14.50;;;1.90;;
67508;SDS011;54354;44.724;11.284;2023-01-23T14:14:00;11.68;;;1.90;;
67508;SDS011;54354;44.724;11.284;2023-01-23T14:16:46;18.85;;;2.10;;
67508;SDS011;54354;44.724;11.284;2023-01-23T14:19:23;13.10;;;1.70;;
67508;SDS011;54354;44.724;11.284;2023-01-23T14:22:02;15.30;;;2.05;;
67508;SDS011;54354;44.724;11.284;2023-01-23T14:27:34;11.45;;;1.77;;
67508;SDS011;54354;44.724;11.284;2023-01-23T14:30:03;10.68;;;1.88;;
67508;SDS011;54354;44.724;11.284;2023-01-23T14:32:42;13.45;;;1.88;;
67508;SDS011;54354;44.724;11.284;2023-01-23T14:35:26;11.93;;;1.58;;
67508;SDS011;54354;44.724;11.284;2023-01-23T14:37:54;12.80;;;1.85;;
67508;SDS011;54354;44.724;11.284;2023-01-23T14:40:22;17.67;;;2.33;;
67508;SDS011;54354;44.724;11.284;2023-01-23T14:42:54;13.93;;;2.20;;
67508;SDS011;54354;44.724;11.284;2023-01-23T14:45:34;14.48;;;1.80;;
67508;SDS011;54354;44.724;11.284;2023-01-23T14:48:01;12.00;;;1.85;;
67508;SDS011;54354;44.724;11.284;2023-01-23T14:50:29;18.30;;;2.25;;
67508;SDS011;54354;44.724;11.284;2023-01-23T14:53:02;13.18;;;2.20;;
67508;SDS011;54354;44.724;11.284;2023-01-23T14:55:30;19.33;;;1.95;;
67508;SDS011;54354;44.724;11.284;2023-01-23T14:57:58;17.52;;;2.42;;
67508;SDS011;54354;44.724;11.284;2023-01-23T15:00:25;13.90;;;1.90;;
67508;SDS011;54354;44.724;11.284;2023-01-23T15:02:52;15.70;;;2.00;;
67508;SDS011;54354;44.724;11.284;2023-01-23T15:05:21;11.38;;;1.90;;
67508;SDS011;54354;44.724;11.284;2023-01-23T15:07:54;13.57;;;2.03;;
67508;SDS011;54354;44.724;11.284;2023-01-23T15:10:50;16.02;;;2.10;;
67508;SDS011;54354;44.724;11.284;2023-01-23T15:15:58;13.30;;;1.83;;
67508;SDS011;54354;44.724;11.284;2023-01-23T15:18:27;15.02;;;1.92;;
67508;SDS011;54354;44.724;11.284;2023-01-23T15:20:56;14.03;;;2.13;;
67508;SDS011;54354;44.724;11.284;2023-01-23T15:23:31;9.45;;;1.80;;
67508;SDS011;54354;44.724;11.284;2023-01-23T15:28:37;14.57;;;2.10;;
67508;SDS011;54354;44.724;11.284;2023-01-23T15:31:04;11.95;;;2.00;;
67508;SDS011;54354;44.724;11.284;2023-01-23T15:33:30;12.82;;;1.83;;
67508;SDS011;54354;44.724;11.284;2023-01-23T15:36:03;12.48;;;1.85;;
67508;SDS011;54354;44.724;11.284;2023-01-23T15:38:31;16.48;;;2.03;;
67508;SDS011;54354;44.724;11.284;2023-01-23T15:40:56;13.15;;;2.05;;
67508;SDS011;54354;44.724;11.284;2023-01-23T15:43:22;9.20;;;1.60;;
67508;SDS011;54354;44.724;11.284;2023-01-23T15:45:48;10.45;;;1.70;;
67508;SDS011;54354;44.724;11.284;2023-01-23T15:48:13;11.75;;;2.00;;
67508;SDS011;54354;44.724;11.284;2023-01-23T15:50:39;13.30;;;2.03;;
67508;SDS011;54354;44.724;11.284;2023-01-23T15:53:09;13.30;;;1.90;;
67508;SDS011;54354;44.724;11.284;2023-01-23T15:55:36;26.10;;;2.70;;
67508;SDS011;54354;44.724;11.284;2023-01-23T15:58:02;18.02;;;2.30;;
67508;SDS011;54354;44.724;11.284;2023-01-23T16:00:28;10.20;;;1.90;;
67508;SDS011;54354;44.724;11.284;2023-01-23T16:02:54;12.18;;;2.10;;
67508;SDS011;54354;44.724;11.284;2023-01-23T16:05:25;16.13;;;2.10;;
67508;SDS011;54354;44.724;11.284;2023-01-23T16:07:56;17.65;;;2.33;;
67508;SDS011;54354;44.724;11.284;2023-01-23T16:10:26;14.30;;;2.20;;
67508;SDS011;54354;44.724;11.284;2023-01-23T16:12:54;14.88;;;2.72;;
67508;SDS011;54354;44.724;11.284;2023-01-23T16:15:28;13.73;;;2.33;;
67508;SDS011;54354;44.724;11.284;2023-01-23T16:17:58;10.43;;;2.08;;
67508;SDS011;54354;44.724;11.284;2023-01-23T16:22:53;18.73;;;2.28;;
67508;SDS011;54354;44.724;11.284;2023-01-23T16:27:54;15.88;;;2.55;;
67508;SDS011;54354;44.724;11.284;2023-01-23T16:30:20;15.23;;;2.28;;
67508;SDS011;54354;44.724;11.284;2023-01-23T16:32:47;11.63;;;2.05;;
67508;SDS011;54354;44.724;11.284;2023-01-23T16:35:14;14.75;;;2.10;;
67508;SDS011;54354;44.724;11.284;2023-01-23T16:37:41;14.38;;;2.80;;
67508;SDS011;54354;44.724;11.284;2023-01-23T16:40:19;20.50;;;2.70;;
67508;SDS011;54354;44.724;11.284;2023-01-23T16:42:47;12.85;;;1.98;;
67508;SDS011;54354;44.724;11.284;2023-01-23T16:45:19;15.05;;;2.80;;
67508;SDS011;54354;44.724;11.284;2023-01-23T16:47:52;16.55;;;2.25;;
67508;SDS011;54354;44.724;11.284;2023-01-23T16:50:22;11.30;;;2.20;;